sensor_id;sensor_type;location;lat;lon;timestamp;pressure;altitude;pressure_sealevel;temperature;humidity
29417;BME280;28421;51.030;4.006;2023-06-14T00:01:20;101335.81;;;18.73;62.21
29417;BME280;28421;51.030;4.006;2023-06-14T00:03:47;101351.09;;;18.68;63.05
29417;BME280;28421;51.030;4.006;2023-06-14T00:06:14;101347.72;;;18.66;63.54
29417;BME280;28421;51.030;4.006;2023-06-14T00:08:40;101351.28;;;18.66;63.83
29417;BME280;28421;51.030;4.006;2023-06-14T00:11:06;101346.50;;;18.55;64.13
29417;BME280;28421;51.030;4.006;2023-06-14T00:13:32;101355.94;;;18.52;64.55
29417;BME280;28421;51.030;4.006;2023-06-14T00:15:58;101350.91;;;18.49;64.64
29417;BME280;28421;51.030;4.006;2023-06-14T00:18:24;101349.22;;;18.48;64.89
29417;BME280;28421;51.030;4.006;2023-06-14T00:20:50;101353.63;;;18.62;64.04
29417;BME280;28421;51.030;4.006;2023-06-14T00:23:17;101341.25;;;18.53;63.81
29417;BME280;28421;51.030;4.006;2023-06-14T00:25:42;101353.41;;;18.57;63.94
29417;BME280;28421;51.030;4.006;2023-06-14T00:28:07;101358.63;;;18.66;63.56
29417;BME280;28421;51.030;4.006;2023-06-14T00:30:34;101357.59;;;18.67;63.24
29417;BME280;28421;51.030;4.006;2023-06-14T00:33:01;101352.16;;;18.53;63.63
29417;BME280;28421;51.030;4.006;2023-06-14T00:35:26;101357.19;;;18.56;63.65
29417;BME280;28421;51.030;4.006;2023-06-14T00:37:52;101353.25;;;18.46;63.90
29417;BME280;28421;51.030;4.006;2023-06-14T00:40:17;101360.56;;;18.32;64.22
29417;BME280;28421;51.030;4.006;2023-06-14T00:42:44;101358.50;;;18.21;64.41
29417;BME280;28421;51.030;4.006;2023-06-14T00:45:10;101355.56;;;18.02;65.13
29417;BME280;28421;51.030;4.006;2023-06-14T00:47:36;101345.72;;;18.01;64.72
29417;BME280;28421;51.030;4.006;2023-06-14T00:50:06;101357.44;;;18.02;64.35
29417;BME280;28421;51.030;4.006;2023-06-14T00:52:32;101351.78;;;17.90;64.77
29417;BME280;28421;51.030;4.006;2023-06-14T00:54:58;101352.41;;;17.85;64.78
29417;BME280;28421;51.030;4.006;2023-06-14T00:57:23;101343.34;;;17.65;65.17
29417;BME280;28421;51.030;4.006;2023-06-14T00:59:49;101352.13;;;17.60;65.24
29417;BME280;28421;51.030;4.006;2023-06-14T01:02:15;101358.16;;;17.49;65.74
29417;BME280;28421;51.030;4.006;2023-06-14T01:04:44;101352.72;;;17.49;66.05
29417;BME280;28421;51.030;4.006;2023-06-14T01:15:21;101353.53;;;17.30;66.75
29417;BME280;28421;51.030;4.006;2023-06-14T01:17:49;101352.03;;;17.27;66.62
29417;BME280;28421;51.030;4.006;2023-06-14T01:20:17;101346.50;;;17.01;67.73
29417;BME280;28421;51.030;4.006;2023-06-14T01:22:52;101361.81;;;17.15;66.79
29417;BME280;28421;51.030;4.006;2023-06-14T01:25:18;101361.41;;;17.18;66.15
29417;BME280;28421;51.030;4.006;2023-06-14T01:27:58;101353.88;;;17.20;65.72
29417;BME280;28421;51.030;4.006;2023-06-14T01:30:25;101356.84;;;17.25;65.27
29417;BME280;28421;51.030;4.006;2023-06-14T01:32:52;101351.16;;;17.13;65.00
29417;BME280;28421;51.030;4.006;2023-06-14T01:35:18;101352.00;;;17.14;65.16
29417;BME280;28421;51.030;4.006;2023-06-14T01:37:47;101366.25;;;17.23;64.80
29417;BME280;28421;51.030;4.006;2023-06-14T01:40:14;101369.56;;;17.25;64.57
29417;BME280;28421;51.030;4.006;2023-06-14T01:42:40;101370.63;;;17.17;65.03
29417;BME280;28421;51.030;4.006;2023-06-14T01:45:09;101365.19;;;17.24;64.08
29417;BME280;28421;51.030;4.006;2023-06-14T01:47:35;101367.25;;;17.15;64.16
29417;BME280;28421;51.030;4.006;2023-06-14T01:50:04;101357.44;;;17.14;63.79
29417;BME280;28421;51.030;4.006;2023-06-14T01:52:30;101366.44;;;17.21;63.83
29417;BME280;28421;51.030;4.006;2023-06-14T01:54:56;101368.78;;;17.31;63.21
29417;BME280;28421;51.030;4.006;2023-06-14T01:57:24;101367.91;;;17.17;62.97
29417;BME280;28421;51.030;4.006;2023-06-14T01:59:50;101356.78;;;17.05;63.36
29417;BME280;28421;51.030;4.006;2023-06-14T02:02:16;101366.53;;;16.93;63.60
29417;BME280;28421;51.030;4.006;2023-06-14T02:04:42;101371.78;;;17.01;63.44
29417;BME280;28421;51.030;4.006;2023-06-14T02:07:07;101366.94;;;16.90;63.29
29417;BME280;28421;51.030;4.006;2023-06-14T02:09:36;101377.66;;;17.05;63.00
29417;BME280;28421;51.030;4.006;2023-06-14T02:12:01;101377.84;;;16.97;63.14
29417;BME280;28421;51.030;4.006;2023-06-14T02:14:28;101377.41;;;17.00;62.88
29417;BME280;28421;51.030;4.006;2023-06-14T02:16:54;101351.19;;;16.79;62.12
29417;BME280;28421;51.030;4.006;2023-06-14T02:19:20;101370.28;;;16.92;62.92
29417;BME280;28421;51.030;4.006;2023-06-14T02:21:46;101373.56;;;16.81;62.76
29417;BME280;28421;51.030;4.006;2023-06-14T02:24:12;101377.72;;;16.77;63.60
29417;BME280;28421;51.030;4.006;2023-06-14T02:26:37;101362.06;;;16.79;63.30
29417;BME280;28421;51.030;4.006;2023-06-14T02:29:05;101372.28;;;16.77;62.95
29417;BME280;28421;51.030;4.006;2023-06-14T02:31:31;101370.53;;;16.69;62.80
29417;BME280;28421;51.030;4.006;2023-06-14T02:33:57;101368.56;;;16.56;63.37
29417;BME280;28421;51.030;4.006;2023-06-14T02:36:23;101376.34;;;16.66;63.50
29417;BME280;28421;51.030;4.006;2023-06-14T02:38:49;101379.88;;;16.60;62.80
29417;BME280;28421;51.030;4.006;2023-06-14T02:41:14;101371.59;;;16.40;63.48
29417;BME280;28421;51.030;4.006;2023-06-14T02:43:40;101371.44;;;16.48;63.23
29417;BME280;28421;51.030;4.006;2023-06-14T02:46:05;101362.16;;;16.36;62.82
29417;BME280;28421;51.030;4.006;2023-06-14T02:48:32;101375.06;;;16.27;63.48
29417;BME280;28421;51.030;4.006;2023-06-14T02:50:57;101372.38;;;16.34;63.52
29417;BME280;28421;51.030;4.006;2023-06-14T02:53:23;101362.31;;;16.28;63.20
29417;BME280;28421;51.030;4.006;2023-06-14T02:55:48;101366.56;;;16.37;62.96
29417;BME280;28421;51.030;4.006;2023-06-14T02:58:14;101377.63;;;16.35;62.90
29417;BME280;28421;51.030;4.006;2023-06-14T03:00:39;101387.88;;;16.40;62.86
29417;BME280;28421;51.030;4.006;2023-06-14T03:03:07;101386.16;;;16.32;62.62
29417;BME280;28421;51.030;4.006;2023-06-14T03:05:45;101374.41;;;16.25;62.67
29417;BME280;28421;51.030;4.006;2023-06-14T03:08:13;101378.13;;;16.18;63.06
29417;BME280;28421;51.030;4.006;2023-06-14T03:10:48;101384.81;;;16.22;62.68
29417;BME280;28421;51.030;4.006;2023-06-14T03:13:15;101393.94;;;16.14;62.92
29417;BME280;28421;51.030;4.006;2023-06-14T03:15:42;101383.72;;;16.16;62.47
29417;BME280;28421;51.030;4.006;2023-06-14T03:18:08;101375.19;;;16.19;62.04
29417;BME280;28421;51.030;4.006;2023-06-14T03:20:38;101393.38;;;16.25;61.60
29417;BME280;28421;51.030;4.006;2023-06-14T03:23:06;101397.34;;;16.23;61.33
29417;BME280;28421;51.030;4.006;2023-06-14T03:25:32;101395.59;;;16.15;61.90
29417;BME280;28421;51.030;4.006;2023-06-14T03:28:04;101399.09;;;16.09;61.84
29417;BME280;28421;51.030;4.006;2023-06-14T03:30:31;101393.38;;;15.97;62.22
29417;BME280;28421;51.030;4.006;2023-06-14T03:32:57;101377.03;;;15.90;61.37
29417;BME280;28421;51.030;4.006;2023-06-14T03:35:25;101405.09;;;16.04;61.83
29417;BME280;28421;51.030;4.006;2023-06-14T03:37:51;101406.13;;;16.03;61.71
29417;BME280;28421;51.030;4.006;2023-06-14T03:40:19;101403.03;;;16.06;61.38
29417;BME280;28421;51.030;4.006;2023-06-14T03:42:48;101402.31;;;16.19;61.43
29417;BME280;28421;51.030;4.006;2023-06-14T03:45:13;101397.88;;;16.11;61.25
29417;BME280;28421;51.030;4.006;2023-06-14T03:47:39;101406.34;;;16.02;61.31
29417;BME280;28421;51.030;4.006;2023-06-14T03:50:05;101400.47;;;15.98;61.26
29417;BME280;28421;51.030;4.006;2023-06-14T03:52:31;101400.72;;;16.03;60.66
29417;BME280;28421;51.030;4.006;2023-06-14T03:54:58;101395.75;;;16.07;60.81
29417;BME280;28421;51.030;4.006;2023-06-14T03:57:26;101416.22;;;16.09;60.56
29417;BME280;28421;51.030;4.006;2023-06-14T03:59:53;101400.59;;;16.11;60.48
29417;BME280;28421;51.030;4.006;2023-06-14T04:02:19;101412.34;;;16.19;60.64
29417;BME280;28421;51.030;4.006;2023-06-14T04:04:45;101402.00;;;16.07;60.82
29417;BME280;28421;51.030;4.006;2023-06-14T04:07:12;101421.38;;;16.04;60.84
29417;BME280;28421;51.030;4.006;2023-06-14T04:09:39;101422.41;;;16.03;60.81
29417;BME280;28421;51.030;4.006;2023-06-14T04:12:05;101401.94;;;16.01;60.58
29417;BME280;28421;51.030;4.006;2023-06-14T04:14:32;101416.41;;;16.08;60.24
29417;BME280;28421;51.030;4.006;2023-06-14T04:17:00;101378.66;;;15.85;60.54
29417;BME280;28421;51.030;4.006;2023-06-14T04:19:25;101417.19;;;16.02;60.23
29417;BME280;28421;51.030;4.006;2023-06-14T04:21:52;101401.50;;;15.97;59.95
29417;BME280;28421;51.030;4.006;2023-06-14T04:24:17;101421.06;;;16.14;59.56
29417;BME280;28421;51.030;4.006;2023-06-14T04:26:46;101414.84;;;16.20;59.53
29417;BME280;28421;51.030;4.006;2023-06-14T04:29:14;101406.09;;;16.18;59.75
29417;BME280;28421;51.030;4.006;2023-06-14T04:31:42;101430.91;;;16.43;59.05
29417;BME280;28421;51.030;4.006;2023-06-14T04:34:10;101407.41;;;16.29;59.35
29417;BME280;28421;51.030;4.006;2023-06-14T04:36:42;101414.19;;;16.39;58.93
29417;BME280;28421;51.030;4.006;2023-06-14T04:39:16;101423.03;;;16.48;58.60
29417;BME280;28421;51.030;4.006;2023-06-14T04:41:43;101438.56;;;16.61;58.90
29417;BME280;28421;51.030;4.006;2023-06-14T04:44:10;101411.81;;;16.58;58.87
29417;BME280;28421;51.030;4.006;2023-06-14T04:46:39;101409.94;;;16.58;58.38
29417;BME280;28421;51.030;4.006;2023-06-14T04:49:15;101427.22;;;16.79;58.86
29417;BME280;28421;51.030;4.006;2023-06-14T04:51:42;101444.66;;;16.91;58.88
29417;BME280;28421;51.030;4.006;2023-06-14T04:54:09;101440.25;;;16.90;58.62
29417;BME280;28421;51.030;4.006;2023-06-14T04:56:41;101408.44;;;16.77;57.73
29417;BME280;28421;51.030;4.006;2023-06-14T04:59:11;101417.47;;;16.91;57.77
29417;BME280;28421;51.030;4.006;2023-06-14T05:01:38;101435.06;;;16.95;57.52
29417;BME280;28421;51.030;4.006;2023-06-14T05:04:03;101424.44;;;17.00;57.50
29417;BME280;28421;51.030;4.006;2023-06-14T05:06:29;101412.50;;;16.95;57.66
29417;BME280;28421;51.030;4.006;2023-06-14T05:08:56;101462.25;;;17.30;56.96
29417;BME280;28421;51.030;4.006;2023-06-14T05:11:22;101447.38;;;17.26;57.20
29417;BME280;28421;51.030;4.006;2023-06-14T05:13:50;101449.47;;;17.30;57.38
29417;BME280;28421;51.030;4.006;2023-06-14T05:16:16;101465.19;;;17.35;56.49
29417;BME280;28421;51.030;4.006;2023-06-14T05:18:42;101456.84;;;17.43;56.41
29417;BME280;28421;51.030;4.006;2023-06-14T05:21:07;101449.97;;;17.47;56.33
29417;BME280;28421;51.030;4.006;2023-06-14T05:23:33;101453.56;;;17.61;56.22
29417;BME280;28421;51.030;4.006;2023-06-14T05:25:59;101444.38;;;17.62;55.77
29417;BME280;28421;51.030;4.006;2023-06-14T05:28:24;101461.16;;;17.72;55.62
29417;BME280;28421;51.030;4.006;2023-06-14T05:30:51;101432.66;;;17.61;55.83
29417;BME280;28421;51.030;4.006;2023-06-14T05:33:17;101471.69;;;17.88;55.10
29417;BME280;28421;51.030;4.006;2023-06-14T05:35:42;101447.41;;;17.80;55.62
29417;BME280;28421;51.030;4.006;2023-06-14T05:38:08;101465.00;;;17.98;53.25
29417;BME280;28421;51.030;4.006;2023-06-14T05:40:33;101473.19;;;18.11;53.52
29417;BME280;28421;51.030;4.006;2023-06-14T05:42:59;101455.63;;;18.13;53.37
29417;BME280;28421;51.030;4.006;2023-06-14T05:45:24;101459.41;;;18.26;51.94
29417;BME280;28421;51.030;4.006;2023-06-14T05:47:50;101463.59;;;18.35;52.35
29417;BME280;28421;51.030;4.006;2023-06-14T05:50:16;101471.56;;;18.56;52.69
29417;BME280;28421;51.030;4.006;2023-06-14T05:52:41;101464.88;;;18.46;50.74
29417;BME280;28421;51.030;4.006;2023-06-14T05:55:07;101475.13;;;18.57;51.26
29417;BME280;28421;51.030;4.006;2023-06-14T05:57:32;101473.50;;;18.76;52.02
29417;BME280;28421;51.030;4.006;2023-06-14T05:59:58;101477.25;;;18.81;50.40
29417;BME280;28421;51.030;4.006;2023-06-14T06:02:23;101471.59;;;18.76;51.37
29417;BME280;28421;51.030;4.006;2023-06-14T06:04:49;101483.94;;;18.85;52.05
29417;BME280;28421;51.030;4.006;2023-06-14T06:07:15;101483.50;;;19.02;51.20
29417;BME280;28421;51.030;4.006;2023-06-14T06:09:41;101493.75;;;19.06;51.04
29417;BME280;28421;51.030;4.006;2023-06-14T06:12:07;101483.28;;;19.10;49.64
29417;BME280;28421;51.030;4.006;2023-06-14T06:14:32;101483.06;;;19.11;50.31
29417;BME280;28421;51.030;4.006;2023-06-14T06:16:58;101494.59;;;19.20;49.59
29417;BME280;28421;51.030;4.006;2023-06-14T06:19:24;101489.94;;;19.34;50.03
29417;BME280;28421;51.030;4.006;2023-06-14T06:21:49;101489.88;;;19.47;49.87
29417;BME280;28421;51.030;4.006;2023-06-14T06:24:15;101486.34;;;19.40;48.70
29417;BME280;28421;51.030;4.006;2023-06-14T06:26:41;101493.84;;;19.51;49.72
29417;BME280;28421;51.030;4.006;2023-06-14T06:29:06;101497.38;;;19.72;48.82
29417;BME280;28421;51.030;4.006;2023-06-14T06:31:32;101496.50;;;19.78;49.46
29417;BME280;28421;51.030;4.006;2023-06-14T06:33:57;101500.69;;;19.80;47.61
29417;BME280;28421;51.030;4.006;2023-06-14T06:36:24;101496.50;;;19.78;47.16
29417;BME280;28421;51.030;4.006;2023-06-14T06:38:49;101473.38;;;19.87;47.56
29417;BME280;28421;51.030;4.006;2023-06-14T06:41:15;101493.66;;;19.98;47.49
29417;BME280;28421;51.030;4.006;2023-06-14T06:43:41;101490.41;;;20.14;47.44
29417;BME280;28421;51.030;4.006;2023-06-14T06:46:08;101499.59;;;20.26;46.44
29417;BME280;28421;51.030;4.006;2023-06-14T06:48:33;101494.94;;;20.27;47.05
29417;BME280;28421;51.030;4.006;2023-06-14T06:50:59;101497.00;;;20.38;46.90
29417;BME280;28421;51.030;4.006;2023-06-14T06:53:24;101469.78;;;20.25;46.25
29417;BME280;28421;51.030;4.006;2023-06-14T06:55:50;101492.91;;;20.47;46.32
29417;BME280;28421;51.030;4.006;2023-06-14T06:58:15;101499.94;;;20.68;45.31
29417;BME280;28421;51.030;4.006;2023-06-14T07:00:41;101492.28;;;20.77;45.88
29417;BME280;28421;51.030;4.006;2023-06-14T07:03:06;101504.16;;;20.89;46.65
29417;BME280;28421;51.030;4.006;2023-06-14T07:05:32;101507.91;;;20.95;45.55
29417;BME280;28421;51.030;4.006;2023-06-14T07:07:57;101501.75;;;20.99;45.88
29417;BME280;28421;51.030;4.006;2023-06-14T07:10:23;101500.34;;;21.15;45.68
29417;BME280;28421;51.030;4.006;2023-06-14T07:12:50;101511.69;;;21.37;44.21
29417;BME280;28421;51.030;4.006;2023-06-14T07:15:16;101503.09;;;21.52;45.00
29417;BME280;28421;51.030;4.006;2023-06-14T07:17:41;101515.63;;;21.59;44.79
29417;BME280;28421;51.030;4.006;2023-06-14T07:20:08;101501.44;;;21.69;45.31
29417;BME280;28421;51.030;4.006;2023-06-14T07:22:45;101486.88;;;21.69;43.55
29417;BME280;28421;51.030;4.006;2023-06-14T07:25:12;101514.56;;;21.79;43.98
29417;BME280;28421;51.030;4.006;2023-06-14T07:27:42;101517.47;;;22.14;43.56
29417;BME280;28421;51.030;4.006;2023-06-14T07:30:08;101520.16;;;22.32;43.79
29417;BME280;28421;51.030;4.006;2023-06-14T07:32:34;101512.94;;;22.50;42.53
29417;BME280;28421;51.030;4.006;2023-06-14T07:35:00;101517.28;;;22.69;42.59
29417;BME280;28421;51.030;4.006;2023-06-14T07:37:25;101501.19;;;22.73;42.57
29417;BME280;28421;51.030;4.006;2023-06-14T07:39:51;101510.00;;;22.75;42.04
29417;BME280;28421;51.030;4.006;2023-06-14T07:42:16;101490.91;;;22.80;42.67
29417;BME280;28421;51.030;4.006;2023-06-14T07:44:42;101519.34;;;23.09;41.97
29417;BME280;28421;51.030;4.006;2023-06-14T07:47:07;101524.47;;;23.17;41.44
29417;BME280;28421;51.030;4.006;2023-06-14T07:49:33;101491.69;;;22.99;40.20
29417;BME280;28421;51.030;4.006;2023-06-14T07:51:58;101513.00;;;23.32;40.79
29417;BME280;28421;51.030;4.006;2023-06-14T07:54:24;101521.34;;;23.37;40.01
29417;BME280;28421;51.030;4.006;2023-06-14T07:56:52;101527.06;;;23.47;40.31
29417;BME280;28421;51.030;4.006;2023-06-14T07:59:17;101524.19;;;23.66;40.19
29417;BME280;28421;51.030;4.006;2023-06-14T08:01:43;101522.88;;;23.56;40.65
29417;BME280;28421;51.030;4.006;2023-06-14T08:04:15;101532.66;;;23.64;39.59
29417;BME280;28421;51.030;4.006;2023-06-14T08:06:40;101531.66;;;23.82;40.52
29417;BME280;28421;51.030;4.006;2023-06-14T08:09:09;101521.19;;;23.67;38.79
29417;BME280;28421;51.030;4.006;2023-06-14T08:11:36;101518.41;;;23.79;38.67
29417;BME280;28421;51.030;4.006;2023-06-14T08:14:01;101504.28;;;23.87;40.09
29417;BME280;28421;51.030;4.006;2023-06-14T08:16:27;101479.78;;;23.97;39.07
29417;BME280;28421;51.030;4.006;2023-06-14T08:18:52;101500.69;;;23.98;38.02
29417;BME280;28421;51.030;4.006;2023-06-14T08:21:18;101507.88;;;24.16;37.01
29417;BME280;28421;51.030;4.006;2023-06-14T08:23:43;101524.22;;;24.51;38.79
29417;BME280;28421;51.030;4.006;2023-06-14T08:26:09;101507.22;;;24.26;37.53
29417;BME280;28421;51.030;4.006;2023-06-14T08:28:35;101515.84;;;24.46;38.14
29417;BME280;28421;51.030;4.006;2023-06-14T08:31:00;101507.38;;;24.65;38.19
29417;BME280;28421;51.030;4.006;2023-06-14T08:33:26;101526.28;;;24.78;38.37
29417;BME280;28421;51.030;4.006;2023-06-14T08:35:52;101525.72;;;24.76;37.81
29417;BME280;28421;51.030;4.006;2023-06-14T08:38:17;101520.69;;;25.07;37.75
29417;BME280;28421;51.030;4.006;2023-06-14T08:40:45;101518.63;;;25.14;35.90
29417;BME280;28421;51.030;4.006;2023-06-14T08:43:13;101509.00;;;25.16;35.56
29417;BME280;28421;51.030;4.006;2023-06-14T08:45:38;101497.78;;;25.01;34.63
29417;BME280;28421;51.030;4.006;2023-06-14T08:48:06;101526.53;;;25.27;35.30
29417;BME280;28421;51.030;4.006;2023-06-14T08:50:33;101529.03;;;25.50;35.12
29417;BME280;28421;51.030;4.006;2023-06-14T08:53:01;101516.78;;;25.41;34.31
29417;BME280;28421;51.030;4.006;2023-06-14T08:55:28;101517.19;;;25.50;34.40
29417;BME280;28421;51.030;4.006;2023-06-14T08:57:55;101525.88;;;25.81;35.04
29417;BME280;28421;51.030;4.006;2023-06-14T09:00:26;101521.25;;;25.86;34.57
29417;BME280;28421;51.030;4.006;2023-06-14T09:02:52;101524.03;;;26.13;34.76
29417;BME280;28421;51.030;4.006;2023-06-14T09:05:26;101510.94;;;26.25;33.74
29417;BME280;28421;51.030;4.006;2023-06-14T09:07:52;101521.91;;;26.47;33.41
29417;BME280;28421;51.030;4.006;2023-06-14T09:10:20;101535.53;;;26.59;33.03
29417;BME280;28421;51.030;4.006;2023-06-14T09:12:46;101526.53;;;26.42;34.10
29417;BME280;28421;51.030;4.006;2023-06-14T09:15:12;101518.88;;;26.22;33.13
29417;BME280;28421;51.030;4.006;2023-06-14T09:17:39;101533.31;;;26.61;32.76
29417;BME280;28421;51.030;4.006;2023-06-14T09:20:06;101527.97;;;26.49;31.55
29417;BME280;28421;51.030;4.006;2023-06-14T09:22:32;101534.72;;;26.59;31.29
29417;BME280;28421;51.030;4.006;2023-06-14T09:24:59;101531.00;;;26.48;30.59
29417;BME280;28421;51.030;4.006;2023-06-14T09:27:28;101517.66;;;26.67;31.66
29417;BME280;28421;51.030;4.006;2023-06-14T09:29:54;101544.16;;;26.68;30.65
29417;BME280;28421;51.030;4.006;2023-06-14T09:32:21;101520.81;;;26.81;31.76
29417;BME280;28421;51.030;4.006;2023-06-14T09:34:46;101551.78;;;26.88;31.75
29417;BME280;28421;51.030;4.006;2023-06-14T09:37:12;101531.84;;;26.81;31.65
29417;BME280;28421;51.030;4.006;2023-06-14T09:39:50;101542.13;;;26.90;31.80
29417;BME280;28421;51.030;4.006;2023-06-14T09:42:17;101540.81;;;27.03;31.48
29417;BME280;28421;51.030;4.006;2023-06-14T09:44:47;101545.47;;;26.97;30.53
29417;BME280;28421;51.030;4.006;2023-06-14T09:47:15;101551.81;;;26.93;30.23
29417;BME280;28421;51.030;4.006;2023-06-14T09:49:41;101546.31;;;26.98;31.15
29417;BME280;28421;51.030;4.006;2023-06-14T09:52:10;101557.00;;;27.21;31.64
29417;BME280;28421;51.030;4.006;2023-06-14T09:54:40;101543.41;;;27.10;30.06
29417;BME280;28421;51.030;4.006;2023-06-14T09:57:09;101534.22;;;27.04;29.91
29417;BME280;28421;51.030;4.006;2023-06-14T09:59:40;101554.28;;;27.26;30.14
29417;BME280;28421;51.030;4.006;2023-06-14T10:02:13;101536.88;;;27.26;30.75
29417;BME280;28421;51.030;4.006;2023-06-14T10:04:46;101543.69;;;27.13;31.28
29417;BME280;28421;51.030;4.006;2023-06-14T10:07:15;101532.09;;;27.16;31.41
29417;BME280;28421;51.030;4.006;2023-06-14T10:09:44;101552.03;;;27.23;31.90
29417;BME280;28421;51.030;4.006;2023-06-14T10:12:14;101538.59;;;27.37;31.60
29417;BME280;28421;51.030;4.006;2023-06-14T10:14:47;101520.94;;;27.38;29.84
29417;BME280;28421;51.030;4.006;2023-06-14T10:17:20;101537.53;;;27.48;30.14
29417;BME280;28421;51.030;4.006;2023-06-14T10:20:03;101546.66;;;27.49;29.22
29417;BME280;28421;51.030;4.006;2023-06-14T10:22:44;101546.53;;;27.29;29.24
29417;BME280;28421;51.030;4.006;2023-06-14T10:25:13;101544.41;;;27.41;29.31
29417;BME280;28421;51.030;4.006;2023-06-14T10:27:51;101555.69;;;27.29;28.78
29417;BME280;28421;51.030;4.006;2023-06-14T10:30:16;101551.84;;;27.40;29.49
29417;BME280;28421;51.030;4.006;2023-06-14T10:33:08;101555.13;;;27.32;30.37
29417;BME280;28421;51.030;4.006;2023-06-14T10:35:34;101532.84;;;27.49;30.54
29417;BME280;28421;51.030;4.006;2023-06-14T10:38:11;101555.41;;;27.83;30.21
29417;BME280;28421;51.030;4.006;2023-06-14T10:40:38;101553.19;;;27.80;30.38
29417;BME280;28421;51.030;4.006;2023-06-14T10:43:23;101555.09;;;27.27;29.86
29417;BME280;28421;51.030;4.006;2023-06-14T10:48:33;101534.13;;;26.94;31.13
29417;BME280;28421;51.030;4.006;2023-06-14T10:51:02;101553.63;;;27.62;30.87
29417;BME280;28421;51.030;4.006;2023-06-14T10:53:27;101536.09;;;27.36;29.93
29417;BME280;28421;51.030;4.006;2023-06-14T10:55:56;101544.53;;;27.14;29.39
29417;BME280;28421;51.030;4.006;2023-06-14T10:58:21;101544.97;;;27.43;30.41
29417;BME280;28421;51.030;4.006;2023-06-14T11:00:47;101546.41;;;27.56;29.04
29417;BME280;28421;51.030;4.006;2023-06-14T11:03:36;101555.50;;;27.46;28.68
29417;BME280;28421;51.030;4.006;2023-06-14T11:06:13;101540.28;;;26.69;28.91
29417;BME280;28421;51.030;4.006;2023-06-14T11:11:32;101538.56;;;27.32;29.00
29417;BME280;28421;51.030;4.006;2023-06-14T11:13:59;101546.31;;;27.35;29.39
29417;BME280;28421;51.030;4.006;2023-06-14T11:16:26;101536.63;;;27.80;28.19
29417;BME280;28421;51.030;4.006;2023-06-14T11:18:53;101499.28;;;27.78;27.82
29417;BME280;28421;51.030;4.006;2023-06-14T11:21:19;101531.97;;;27.96;28.21
29417;BME280;28421;51.030;4.006;2023-06-14T11:23:51;101519.81;;;28.02;27.83
29417;BME280;28421;51.030;4.006;2023-06-14T11:26:28;101525.75;;;27.63;27.02
29417;BME280;28421;51.030;4.006;2023-06-14T11:28:58;101540.28;;;28.11;28.48
29417;BME280;28421;51.030;4.006;2023-06-14T11:31:24;101514.03;;;28.04;27.38
29417;BME280;28421;51.030;4.006;2023-06-14T11:33:50;101523.72;;;28.32;27.52
29417;BME280;28421;51.030;4.006;2023-06-14T11:36:18;101519.19;;;27.80;26.85
29417;BME280;28421;51.030;4.006;2023-06-14T11:38:43;101517.31;;;27.95;28.41
29417;BME280;28421;51.030;4.006;2023-06-14T11:41:09;101497.56;;;27.66;28.25
29417;BME280;28421;51.030;4.006;2023-06-14T11:43:35;101519.03;;;28.22;29.03
29417;BME280;28421;51.030;4.006;2023-06-14T11:46:01;101516.03;;;28.39;27.63
29417;BME280;28421;51.030;4.006;2023-06-14T11:48:40;101514.94;;;28.55;27.58
29417;BME280;28421;51.030;4.006;2023-06-14T11:51:06;101501.59;;;28.16;27.01
29417;BME280;28421;51.030;4.006;2023-06-14T11:53:32;101497.19;;;28.25;28.67
29417;BME280;28421;51.030;4.006;2023-06-14T11:55:58;101484.00;;;27.65;27.98
29417;BME280;28421;51.030;4.006;2023-06-14T11:58:25;101498.22;;;27.84;26.78
29417;BME280;28421;51.030;4.006;2023-06-14T12:00:52;101503.78;;;28.04;27.25
29417;BME280;28421;51.030;4.006;2023-06-14T12:03:22;101513.75;;;28.00;25.76
29417;BME280;28421;51.030;4.006;2023-06-14T12:05:48;101500.53;;;28.43;27.55
29417;BME280;28421;51.030;4.006;2023-06-14T12:08:13;101485.59;;;28.69;26.75
29417;BME280;28421;51.030;4.006;2023-06-14T12:10:42;101512.72;;;28.57;25.66
29417;BME280;28421;51.030;4.006;2023-06-14T12:13:09;101504.03;;;27.97;25.63
29417;BME280;28421;51.030;4.006;2023-06-14T12:15:35;101513.44;;;27.91;26.26
29417;BME280;28421;51.030;4.006;2023-06-14T12:18:00;101493.59;;;28.30;26.47
29417;BME280;28421;51.030;4.006;2023-06-14T12:20:30;101509.69;;;28.79;26.56
29417;BME280;28421;51.030;4.006;2023-06-14T12:22:57;101517.97;;;28.69;25.38
29417;BME280;28421;51.030;4.006;2023-06-14T12:25:33;101517.97;;;28.79;25.78
29417;BME280;28421;51.030;4.006;2023-06-14T12:28:04;101495.84;;;28.38;25.48
29417;BME280;28421;51.030;4.006;2023-06-14T12:30:31;101486.72;;;28.63;24.74
29417;BME280;28421;51.030;4.006;2023-06-14T12:32:56;101489.19;;;28.75;24.55
29417;BME280;28421;51.030;4.006;2023-06-14T12:35:22;101475.34;;;28.65;26.00
29417;BME280;28421;51.030;4.006;2023-06-14T12:37:47;101499.69;;;28.78;25.47
29417;BME280;28421;51.030;4.006;2023-06-14T12:40:13;101503.84;;;28.96;25.17
29417;BME280;28421;51.030;4.006;2023-06-14T12:42:40;101501.06;;;28.96;25.34
29417;BME280;28421;51.030;4.006;2023-06-14T12:45:06;101476.41;;;27.92;25.62
29417;BME280;28421;51.030;4.006;2023-06-14T12:47:31;101524.09;;;28.66;25.09
29417;BME280;28421;51.030;4.006;2023-06-14T12:49:57;101506.63;;;28.60;25.86
29417;BME280;28421;51.030;4.006;2023-06-14T12:52:22;101488.91;;;28.82;25.55
29417;BME280;28421;51.030;4.006;2023-06-14T12:54:48;101504.94;;;28.90;25.64
29417;BME280;28421;51.030;4.006;2023-06-14T12:57:13;101499.13;;;28.81;25.70
29417;BME280;28421;51.030;4.006;2023-06-14T12:59:39;101514.09;;;28.80;24.84
29417;BME280;28421;51.030;4.006;2023-06-14T13:02:15;101472.59;;;28.29;25.39
29417;BME280;28421;51.030;4.006;2023-06-14T13:04:41;101473.16;;;28.41;24.93